Time;durP1;ratioP1;P1;durP2;ratioP2;P2;SDS_P1;SDS_P2;PMS_P1;PMS_P2;Temp;Humidity;BMP_temperature;BMP_pressure;BME280_temperature;BME280_humidity;BME280_pressure;Samples;Min_cycle;Max_cycle;Signal;HPM_P1;HPM_P2
2022/12/13 00:04:48;;;;;;;1.15;1.05;;;;;;;-7.85;92.90;101156.66;10501574;28;20139;-76
2022/12/13 00:09:50;;;;;;;3.78;3.45;;;;;;;-7.86;93.04;101158.31;10520920;28;20048;-76
2022/12/13 00:14:52;;;;;;;3.83;3.22;;;;;;;-7.83;93.27;101152.66;10517978;28;20501;-77
2022/12/13 00:19:54;;;;;;;2.13;1.42;;;;;;;-7.71;92.91;101153.81;10522441;28;20059;-76
2022/12/13 00:24:55;;;;;;;3.42;2.20;;;;;;;-7.49;93.59;101148.22;10518743;28;20079;-78
2022/12/13 00:29:57;;;;;;;3.60;2.35;;;;;;;-7.29;93.47;101148.44;10519880;28;20398;-77
2022/12/13 00:34:59;;;;;;;1.77;1.67;;;;;;;-7.11;93.69;101144.19;10501142;28;20059;-78
2022/12/13 00:40:00;;;;;;;0.85;0.85;;;;;;;-6.93;93.67;101149.19;10527683;28;20665;-76
2022/12/13 00:45:02;;;;;;;1.77;1.63;;;;;;;-6.76;93.90;101140.56;10509149;28;20428;-76
2022/12/13 00:50:05;;;;;;;1.80;1.45;;;;;;;-6.60;93.57;101145.41;10518504;28;20093;-76
2022/12/13 00:55:07;;;;;;;0.75;0.75;;;;;;;-6.51;93.54;101136.06;10525985;28;20055;-77
2022/12/13 01:00:09;;;;;;;2.65;2.05;;;;;;;-6.44;94.00;101118.03;10484616;28;20475;-75
2022/12/13 01:05:11;;;;;;;1.33;1.23;;;;;;;-6.29;93.62;101122.69;10491743;28;20087;-77
2022/12/13 01:10:13;;;;;;;1.08;0.98;;;;;;;-6.15;94.02;101117.19;10523271;28;20577;-76
2022/12/13 01:15:15;;;;;;;1.27;1.23;;;;;;;-6.00;94.00;101125.28;10518361;28;20091;-76
2022/12/13 01:20:17;;;;;;;1.17;1.08;;;;;;;-5.96;93.82;101121.31;10489406;28;20050;-76
2022/12/13 01:25:18;;;;;;;5.78;2.33;;;;;;;-5.88;94.17;101131.44;10525725;28;20493;-77
2022/12/13 01:30:20;;;;;;;1.73;1.60;;;;;;;-5.80;94.48;101136.31;10526272;28;20105;-76
2022/12/13 01:35:21;;;;;;;1.63;1.33;;;;;;;-5.74;94.25;101132.63;10482689;28;20048;-77
2022/12/13 01:40:23;;;;;;;0.95;0.75;;;;;;;-5.63;94.51;101136.16;10507081;28;20039;-77
2022/12/13 01:45:27;;;;;;;2.75;2.40;;;;;;;-5.52;94.48;101129.44;10501800;28;20045;-79
2022/12/13 01:50:41;;;;;;;1.80;1.60;;;;;;;-5.65;94.25;101140.22;10491517;28;20041;-77
2022/12/13 01:55:49;;;;;;;1.40;1.05;;;;;;;-5.78;94.56;101129.69;10515076;28;20052;-76
2022/12/13 02:00:51;;;;;;;1.73;1.63;;;;;;;-5.90;94.50;101125.31;10499463;28;20056;-78
2022/12/13 02:06:14;;;;;;;4.18;3.17;;;;;;;-5.98;94.70;101131.41;10490525;28;20051;-78
2022/12/13 02:11:16;;;;;;;2.53;2.08;;;;;;;-6.13;94.50;101118.19;10519919;28;20040;-77
2022/12/13 02:16:29;;;;;;;2.25;2.10;;;;;;;-6.20;94.50;101118.41;10511759;28;20110;-78
2022/12/13 02:21:54;;;;;;;1.33;1.23;;;;;;;-6.28;94.87;101125.38;10505185;28;20044;-76
2022/12/13 02:27:15;;;;;;;1.40;1.30;;;;;;;-6.24;94.46;101117.25;10515798;28;20047;-78
2022/12/13 02:32:38;;;;;;;1.20;1.13;;;;;;;-6.23;94.73;101107.94;10505380;28;20071;-78
2022/12/13 02:37:58;;;;;;;4.77;4.30;;;;;;;-6.23;94.84;101098.66;10514374;28;20028;-77
2022/12/13 02:43:22;;;;;;;1.42;1.35;;;;;;;-6.19;94.79;101096.38;10494928;28;20048;-76
2022/12/13 02:48:37;;;;;;;1.92;1.70;;;;;;;-6.13;94.95;101094.38;10521922;28;20051;-77
2022/12/13 02:53:40;;;;;;;2.80;0.85;;;;;;;-5.99;94.88;101091.41;10504060;28;20536;-76
2022/12/13 02:58:47;;;;;;;1.73;1.63;;;;;;;-5.87;95.52;101091.50;10513554;28;20055;-78
2022/12/13 03:04:35;;;;;;;2.88;2.60;;;;;;;-5.78;95.26;101086.31;10496033;28;20056;-79
2022/12/13 03:09:56;;;;;;;2.85;2.60;;;;;;;-5.67;95.27;101093.25;10505155;28;20448;-77
2022/12/13 03:15:04;;;;;;;4.07;2.92;;;;;;;-5.60;95.57;101077.72;10512208;28;20043;-75
2022/12/13 03:20:07;;;;;;;1.20;1.10;;;;;;;-5.56;95.48;101077.22;10512870;28;20135;-76
2022/12/13 03:25:28;;;;;;;2.55;1.48;;;;;;;-5.42;95.52;101087.72;10512552;28;20090;-77
2022/12/13 03:30:33;;;;;;;2.38;2.10;;;;;;;-5.41;95.69;101087.84;10522124;28;20043;-76
2022/12/13 03:35:35;;;;;;;1.38;1.23;;;;;;;-5.41;95.63;101080.19;10513158;28;20468;-76
2022/12/13 03:40:46;;;;;;;1.40;1.33;;;;;;;-5.36;95.64;101080.56;10512022;28;20131;-77
2022/12/13 03:45:49;;;;;;;2.50;2.30;;;;;;;-5.32;95.49;101087.75;10529274;28;20405;-77
2022/12/13 03:50:52;;;;;;;4.45;2.35;;;;;;;-5.31;95.61;101079.31;10521396;28;20032;-80
2022/12/13 03:55:54;;;;;;;1.85;1.55;;;;;;;-5.28;96.02;101064.28;10494897;28;20036;-78
2022/12/13 04:00:55;;;;;;;2.08;1.90;;;;;;;-5.35;95.52;101067.06;10502380;28;20040;-76
2022/12/13 04:05:57;;;;;;;4.00;3.30;;;;;;;-5.45;95.72;101059.38;10502913;28;20090;-77
2022/12/13 04:10:58;;;;;;;4.15;2.92;;;;;;;-5.35;96.04;101056.84;10511747;28;20040;-79
2022/12/13 04:16:01;;;;;;;0.80;0.80;;;;;;;-5.37;95.95;101055.84;10519694;28;20052;-79
2022/12/13 04:21:03;;;;;;;1.00;0.95;;;;;;;-5.36;95.78;101055.03;10526314;28;20036;-76
2022/12/13 04:26:05;;;;;;;4.13;3.05;;;;;;;-5.48;95.93;101062.56;10512966;28;20056;-76
2022/12/13 04:31:07;;;;;;;2.47;2.28;;;;;;;-5.59;96.04;101056.53;10503156;28;20045;-76
2022/12/13 04:36:08;;;;;;;1.23;1.13;;;;;;;-5.51;96.15;101050.44;10527263;28;20036;-76
2022/12/13 04:41:15;;;;;;;2.28;2.08;;;;;;;-5.54;96.03;101050.19;10527576;28;20051;-75
2022/12/13 04:46:18;;;;;;;0.60;0.60;;;;;;;-5.46;96.12;101057.56;10490665;28;20482;-77
2022/12/13 04:51:19;;;;;;;1.17;1.10;;;;;;;-5.57;96.17;101065.22;10492334;28;20036;-76
2022/12/13 04:56:21;;;;;;;2.03;1.88;;;;;;;-5.55;96.49;101058.59;10490614;28;20032;-75
2022/12/13 05:01:22;;;;;;;3.50;3.00;;;;;;;-5.58;96.29;101050.69;10526727;28;20047;-76
2022/12/13 05:06:24;;;;;;;0.55;0.55;;;;;;;-5.44;96.30;101051.84;10524729;28;20064;-76
2022/12/13 05:11:28;;;;;;;5.32;2.65;;;;;;;-5.52;96.65;101043.53;10526002;28;20123;-76
2022/12/13 05:16:36;;;;;;;0.90;0.85;;;;;;;-5.45;96.72;101051.72;10499336;28;20089;-77
2022/12/13 05:21:38;;;;;;;1.33;1.23;;;;;;;-5.42;96.47;101040.13;10490498;28;20047;-75
2022/12/13 05:26:40;;;;;;;1.95;1.75;;;;;;;-5.39;96.43;101034.38;10517376;28;20048;-76
2022/12/13 05:31:42;;;;;;;2.47;2.05;;;;;;;-5.45;96.41;101038.97;10491499;28;20047;-75
2022/12/13 05:36:43;;;;;;;1.88;1.73;;;;;;;-5.39;96.53;101031.81;10482844;28;20048;-75
2022/12/13 05:41:45;;;;;;;2.28;1.30;;;;;;;-5.43;96.48;101027.25;10499861;28;20441;-75
2022/12/13 05:46:46;;;;;;;2.17;1.55;;;;;;;-5.43;96.57;101029.78;10514818;28;20043;-75
2022/12/13 05:51:48;;;;;;;0.47;0.47;;;;;;;-5.52;96.80;101029.91;10514571;28;20050;-76
2022/12/13 05:56:50;;;;;;;5.90;2.25;;;;;;;-5.66;96.88;101035.47;10523174;28;20052;-77
2022/12/13 06:01:51;;;;;;;7.63;2.95;;;;;;;-5.64;96.88;101036.47;10524376;28;20388;-75
2022/12/13 06:06:53;;;;;;;2.67;2.47;;;;;;;-5.69;96.56;101036.09;10514863;28;20468;-76
2022/12/13 06:11:55;;;;;;;1.70;1.55;;;;;;;-5.66;96.70;101028.69;10514435;28;20503;-76
2022/12/13 06:17:02;;;;;;;2.72;2.53;;;;;;;-5.60;96.84;101036.00;10498622;28;20124;-76
2022/12/13 06:22:04;;;;;;;5.32;2.97;;;;;;;-5.62;96.68;101030.75;10494439;28;20661;-75
2022/12/13 06:27:06;;;;;;;2.10;1.90;;;;;;;-5.59;96.81;101031.03;10495922;28;20559;-75
2022/12/13 06:32:08;;;;;;;2.85;2.22;;;;;;;-5.64;97.03;101026.28;10513939;28;20036;-75
2022/12/13 06:37:12;;;;;;;1.60;1.50;;;;;;;-5.68;96.83;101023.47;10497211;28;20508;-75
2022/12/13 06:42:16;;;;;;;3.35;2.45;;;;;;;-5.73;96.85;101019.63;10478589;28;20592;-77
2022/12/13 06:47:26;;;;;;;3.30;2.15;;;;;;;-5.74;96.88;101020.41;10475138;28;20490;-75
2022/12/13 06:52:33;;;;;;;6.53;4.30;;;;;;;-5.81;96.83;101022.28;10483218;28;20202;-74
2022/12/13 06:57:34;;;;;;;1.67;1.58;;;;;;;-5.84;96.99;101019.47;10470432;28;20040;-75
2022/12/13 07:02:36;;;;;;;4.38;3.05;;;;;;;-6.10;96.84;101038.53;10462324;28;20547;-75
2022/12/13 07:07:39;;;;;;;0.77;0.77;;;;;;;-6.25;97.04;101036.44;10499389;28;20125;-75
2022/12/13 07:12:40;;;;;;;2.03;1.83;;;;;;;-6.16;96.56;101038.00;10495212;28;20032;-76
2022/12/13 07:17:42;;;;;;;5.18;3.97;;;;;;;-6.30;96.74;101039.34;10470996;28;20097;-75
2022/12/13 07:22:45;;;;;;;0.40;0.40;;;;;;;-6.20;97.05;101047.03;10520137;28;20043;-76
2022/12/13 07:27:55;;;;;;;1.35;1.10;;;;;;;-6.23;96.66;101039.13;10500543;28;20650;-75
2022/12/13 07:33:04;;;;;;;2.58;2.30;;;;;;;-6.21;97.21;101055.47;10515062;28;20282;-75
2022/12/13 07:38:07;;;;;;;3.45;3.15;;;;;;;-6.12;97.23;101045.19;10492601;28;20040;-75
2022/12/13 07:43:08;;;;;;;2.22;1.88;;;;;;;-6.26;96.74;101055.06;10487765;28;20053;-75
2022/12/13 07:48:11;;;;;;;3.50;2.55;;;;;;;-6.28;97.15;101059.09;10470267;28;20049;-76
2022/12/13 07:53:13;;;;;;;3.40;1.85;;;;;;;-6.25;97.07;101056.81;10495990;28;20053;-75
2022/12/13 07:58:14;;;;;;;1.20;1.10;;;;;;;-6.10;96.63;101069.16;10493052;28;20057;-75
2022/12/13 08:03:16;;;;;;;4.10;3.67;;;;;;;-6.13;96.74;101068.88;10491193;28;20035;-76
2022/12/13 08:08:27;;;;;;;3.53;3.25;;;;;;;-6.07;97.20;101069.41;10482843;28;20047;-75
2022/12/13 08:13:32;;;;;;;2.08;1.88;;;;;;;-6.06;97.02;101068.66;10514761;28;20040;-76
2022/12/13 08:18:34;;;;;;;3.17;2.45;;;;;;;-6.16;97.25;101059.28;10494495;28;20266;-74
2022/12/13 08:23:36;;;;;;;1.98;1.80;;;;;;;-6.18;97.36;101070.09;10506227;28;20123;-75
2022/12/13 08:28:37;;;;;;;1.58;1.48;;;;;;;-6.07;97.06;101077.06;10509793;28;20413;-74
2022/12/13 08:33:39;;;;;;;0.80;0.80;;;;;;;-6.04;96.87;101064.56;10495643;28;20051;-75
2022/12/13 08:38:41;;;;;;;0.93;0.93;;;;;;;-5.96;96.98;101058.47;10505750;28;20103;-77
2022/12/13 08:43:43;;;;;;;2.40;2.20;;;;;;;-5.74;97.06;101061.22;10525777;28;20103;-75
2022/12/13 08:48:44;;;;;;;1.90;1.70;;;;;;;-5.66;96.97;101053.34;10526431;28;20055;-74
2022/12/13 08:53:46;;;;;;;2.20;2.05;;;;;;;-5.72;96.84;101058.78;10494194;28;20098;-76
2022/12/13 08:58:50;;;;;;;1.00;1.00;;;;;;;-5.73;97.04;101059.56;10492384;28;20051;-74
2022/12/13 09:03:54;;;;;;;1.95;1.65;;;;;;;-5.80;96.89;101086.19;10511877;28;20527;-75
2022/12/13 09:08:55;;;;;;;1.75;1.25;;;;;;;-5.75;96.85;101095.16;10524894;28;20044;-75
2022/12/13 09:13:57;;;;;;;2.60;2.05;;;;;;;-5.62;96.85;101086.91;10510531;28;20090;-77
2022/12/13 09:19:04;;;;;;;5.38;2.58;;;;;;;-5.64;96.82;101085.88;10486957;28;20040;-76
2022/12/13 09:24:27;;;;;;;1.33;1.23;;;;;;;-5.48;97.02;101079.53;10521815;28;20131;-78
2022/12/13 09:29:37;;;;;;;3.65;1.73;;;;;;;-5.56;97.06;101077.22;10481915;28;20054;-76
2022/12/13 09:34:38;;;;;;;1.70;1.55;;;;;;;-5.47;97.07;101091.53;10519033;28;20047;-76
2022/12/13 09:39:40;;;;;;;1.58;1.48;;;;;;;-5.39;96.91;101095.63;10485074;28;20139;-77
2022/12/13 09:44:49;;;;;;;1.75;1.45;;;;;;;-5.34;96.97;101089.28;10487690;28;20051;-76
2022/12/13 09:50:21;;;;;;;1.42;1.33;;;;;;;-5.28;97.07;101087.25;10496164;28;20164;-82
2022/12/13 09:55:41;;;;;;;1.20;1.13;;;;;;;-5.42;97.18;101087.72;10489376;28;20588;-77
2022/12/13 10:00:46;;;;;;;4.00;3.42;;;;;;;-5.32;97.11;101078.41;10507031;28;20035;-77
2022/12/13 10:05:58;;;;;;;1.92;1.83;;;;;;;-5.30;96.99;101065.78;10484724;28;20450;-76
2022/12/13 10:10:59;;;;;;;3.92;2.25;;;;;;;-5.29;97.12;101067.56;10481982;28;20048;-77
2022/12/13 10:16:07;;;;;;;1.08;1.02;;;;;;;-5.29;97.25;101075.22;10518608;28;20091;-78
2022/12/13 10:21:21;;;;;;;2.70;2.47;;;;;;;-5.19;96.95;101071.81;10524178;28;20071;-77
2022/12/13 10:26:23;;;;;;;1.35;1.13;;;;;;;-5.28;97.23;101066.81;10501004;28;20062;-77
2022/12/13 10:31:25;;;;;;;7.75;3.45;;;;;;;-5.19;96.85;101062.50;10500000;28;20043;-78
2022/12/13 10:36:34;;;;;;;6.30;4.65;;;;;;;-5.18;97.29;101048.97;10500226;28;20724;-77
2022/12/13 10:41:37;;;;;;;2.92;2.38;;;;;;;-5.05;97.42;101048.31;10509211;28;20047;-77
2022/12/13 10:46:41;;;;;;;5.13;4.32;;;;;;;-5.00;97.35;101048.69;10483387;28;20033;-76
2022/12/13 10:51:44;;;;;;;2.70;2.47;;;;;;;-4.97;97.49;101041.28;10498156;28;20055;-76
2022/12/13 10:56:49;;;;;;;2.00;1.80;;;;;;;-4.85;97.33;101029.56;10485499;28;20449;-75
2022/12/13 11:01:50;;;;;;;15.63;6.25;;;;;;;-4.74;97.43;101034.63;10519210;28;20088;-75
2022/12/13 11:06:52;;;;;;;5.00;3.83;;;;;;;-4.82;97.39;101029.81;10513595;28;20044;-75
2022/12/13 11:11:58;;;;;;;5.70;4.68;;;;;;;-4.69;97.25;101021.47;10473924;28;20040;-76
2022/12/13 11:17:14;;;;;;;7.10;4.07;;;;;;;-4.52;97.33;101012.63;10487350;28;20437;-76
2022/12/13 11:22:23;;;;;;;2.90;2.17;;;;;;;-4.32;97.54;101015.91;10480916;28;20055;-75
2022/12/13 11:27:48;;;;;;;2.00;1.88;;;;;;;-4.34;97.21;101019.97;10486297;28;20044;-78
2022/12/13 11:32:50;;;;;;;2.92;2.50;;;;;;;-4.23;97.57;101008.97;10465937;28;20033;-77
2022/12/13 11:38:14;;;;;;;3.83;1.48;;;;;;;-4.26;97.35;101009.59;10483832;28;20044;-78
2022/12/13 11:43:28;;;;;;;4.97;3.67;;;;;;;-4.45;97.38;101004.66;10522792;28;20040;-76
2022/12/13 11:49:03;;;;;;;3.13;2.22;;;;;;;-4.32;97.27;100992.91;10492669;28;20053;-78
2022/12/13 11:54:13;;;;;;;1.75;1.65;;;;;;;-4.27;97.21;100999.25;10471543;28;20338;-77
2022/12/13 12:00:03;;;;;;;1.42;1.33;;;;;;;-4.20;97.33;100991.31;10493458;28;20055;-78
2022/12/13 12:05:27;;;;;;;3.42;2.70;;;;;;;-4.20;97.40;100980.16;10468844;28;20048;-76
2022/12/13 12:10:35;;;;;;;4.20;2.72;;;;;;;-3.95;97.16;100980.44;10523245;28;20049;-75
2022/12/13 12:15:45;;;;;;;6.15;5.30;;;;;;;-3.98;97.44;100985.31;10505077;28;20036;-77
2022/12/13 12:20:53;;;;;;;6.40;3.55;;;;;;;-3.86;97.34;100970.03;10510371;28;20036;-79
2022/12/13 12:26:12;;;;;;;2.60;2.40;;;;;;;-3.95;97.37;100968.56;10464371;28;20029;-77
2022/12/13 12:31:21;;;;;;;4.40;3.07;;;;;;;-3.89;97.43;100978.34;10519885;28;20048;-79
2022/12/13 12:36:37;;;;;;;4.03;3.10;;;;;;;-3.81;97.40;100973.84;10526108;28;20052;-79
2022/12/13 12:41:45;;;;;;;2.75;2.53;;;;;;;-3.80;97.12;100967.94;10520808;28;20479;-79
2022/12/13 12:46:59;;;;;;;4.30;3.90;;;;;;;-3.63;97.37;100962.47;10510231;28;20040;-78
2022/12/13 12:52:34;;;;;;;6.07;4.63;;;;;;;-3.60;97.37;100959.25;10523893;28;20218;-77
2022/12/13 12:57:45;;;;;;;6.82;5.57;;;;;;;-3.71;97.39;100965.22;10499633;28;20044;-78
2022/12/13 13:03:09;;;;;;;2.88;2.63;;;;;;;-3.64;97.32;100964.91;10488153;28;20051;-80
2022/12/13 13:08:28;;;;;;;3.35;3.03;;;;;;;-3.49;97.22;100965.19;10525904;28;20052;-82
2022/12/13 13:13:44;;;;;;;3.60;3.10;;;;;;;-3.52;97.13;100960.72;10518367;28;20123;-80
2022/12/13 13:18:54;;;;;;;5.38;3.85;;;;;;;-3.41;97.16;100964.09;10531988;28;20121;-79
2022/12/13 13:24:08;;;;;;;5.25;4.40;;;;;;;-3.41;97.09;100961.53;10537989;28;20138;-79
2022/12/13 13:29:22;;;;;;;11.60;7.60;;;;;;;-3.42;97.17;100952.97;10511232;28;20123;-78
2022/12/13 13:34:34;;;;;;;8.90;5.55;;;;;;;-3.47;97.22;100941.47;10524191;28;20688;-81
2022/12/13 13:39:53;;;;;;;6.40;4.22;;;;;;;-3.35;97.23;100938.94;10514388;28;20044;-79
2022/12/13 13:45:22;;;;;;;7.80;4.75;;;;;;;-3.59;97.27;100940.53;10525822;28;20067;-80
2022/12/13 13:50:54;;;;;;;7.25;3.85;;;;;;;-3.71;96.98;100931.94;10515906;28;20547;-80
2022/12/13 13:56:22;;;;;;;7.55;2.72;;;;;;;-3.88;96.96;100939.22;10499925;28;20623;-78
2022/12/13 14:01:36;;;;;;;4.28;3.67;;;;;;;-3.86;96.81;100937.66;10509069;28;20056;-78
2022/12/13 14:06:41;;;;;;;4.78;3.75;;;;;;;-3.72;96.75;100951.53;10509370;28;20040;-77
2022/12/13 14:12:24;;;;;;;3.97;3.03;;;;;;;-3.79;96.69;100950.16;10513101;28;20067;-77
2022/12/13 14:18:01;;;;;;;4.03;2.70;;;;;;;-3.81;96.64;100961.94;10493799;28;20075;-77
2022/12/13 14:23:28;;;;;;;4.68;3.10;;;;;;;-3.82;96.70;100959.25;10530259;28;20043;-77
2022/12/13 14:28:52;;;;;;;2.72;2.33;;;;;;;-3.87;96.73;100956.34;10501073;28;20094;-76
2022/12/13 14:33:56;;;;;;;3.03;1.85;;;;;;;-3.85;96.67;100953.91;10497864;28;20044;-77
2022/12/13 14:39:00;;;;;;;2.72;2.40;;;;;;;-3.82;96.71;100962.72;10498065;28;20465;-76
2022/12/13 14:44:29;;;;;;;5.03;4.53;;;;;;;-3.97;96.77;100964.09;10493306;28;20551;-77
2022/12/13 14:49:38;;;;;;;4.47;3.95;;;;;;;-4.06;96.62;100951.47;10498584;28;20469;-80
2022/12/13 14:54:49;;;;;;;6.85;6.13;;;;;;;-4.06;96.57;100963.38;10490919;28;20032;-79
2022/12/13 15:00:01;;;;;;;5.55;4.95;;;;;;;-4.10;96.66;100958.00;10491887;28;20036;-77
2022/12/13 15:05:04;;;;;;;5.00;4.47;;;;;;;-4.10;96.75;100954.53;10502144;28;20493;-78
2022/12/13 15:10:21;;;;;;;3.05;2.80;;;;;;;-4.20;96.66;100950.38;10492843;28;20059;-77
2022/12/13 15:15:30;;;;;;;7.40;3.33;;;;;;;-4.26;96.89;100949.91;10514155;28;20044;-79
2022/12/13 15:20:32;;;;;;;6.20;5.03;;;;;;;-4.36;96.69;100949.94;10527471;28;20043;-78
2022/12/13 15:25:38;;;;;;;5.65;4.30;;;;;;;-4.41;96.65;100938.44;10496297;28;20119;-78
2022/12/13 15:30:40;;;;;;;6.85;3.33;;;;;;;-4.49;96.72;100931.09;10489051;28;20055;-78
2022/12/13 15:35:43;;;;;;;5.20;1.70;;;;;;;-4.60;96.68;100926.78;10508410;28;20032;-77
2022/12/13 15:40:49;;;;;;;5.32;4.00;;;;;;;-4.70;96.41;100921.69;10526182;28;20136;-77
2022/12/13 15:45:51;;;;;;;11.15;5.78;;;;;;;-4.83;96.29;100913.03;10516239;28;20505;-78
2022/12/13 15:51:11;;;;;;;2.65;2.45;;;;;;;-4.95;96.39;100912.06;10521817;28;20044;-77
2022/12/13 15:56:29;;;;;;;4.67;3.50;;;;;;;-5.07;96.44;100906.84;10494463;28;20036;-78
2022/12/13 16:01:35;;;;;;;4.32;3.83;;;;;;;-5.16;96.57;100909.53;10521691;28;20078;-78
2022/12/13 16:06:36;;;;;;;5.30;3.05;;;;;;;-5.23;96.22;100899.59;10517653;28;20044;-80
2022/12/13 16:11:50;;;;;;;4.78;4.18;;;;;;;-5.38;96.50;100899.22;10514789;28;20036;-78
2022/12/13 16:16:54;;;;;;;3.40;2.80;;;;;;;-5.54;96.24;100886.88;10523793;28;20549;-78
2022/12/13 16:21:55;;;;;;;5.80;5.15;;;;;;;-5.65;96.20;100884.19;10520564;28;20115;-78
2022/12/13 16:26:57;;;;;;;4.80;2.55;;;;;;;-5.73;96.10;100893.75;10487435;28;20086;-78
2022/12/13 16:31:59;;;;;;;10.93;7.45;;;;;;;-5.74;96.16;100887.75;10528378;28;20768;-79
2022/12/13 16:37:10;;;;;;;1.73;1.63;;;;;;;-5.80;96.10;100891.44;10528366;28;20094;-80
2022/12/13 16:42:28;;;;;;;7.10;5.75;;;;;;;-5.93;96.12;100882.78;10502929;28;20047;-77
2022/12/13 16:47:31;;;;;;;4.05;3.65;;;;;;;-5.98;96.08;100876.41;10522418;28;20767;-79
2022/12/13 16:52:48;;;;;;;4.63;4.18;;;;;;;-6.10;96.24;100867.72;10487212;28;20121;-79
2022/12/13 16:57:58;;;;;;;7.93;6.10;;;;;;;-6.15;95.86;100858.81;10518104;28;20059;-79
2022/12/13 17:03:00;;;;;;;4.00;3.67;;;;;;;-6.23;96.14;100859.06;10528629;28;20044;-77
2022/12/13 17:08:02;;;;;;;2.25;1.63;;;;;;;-6.30;95.57;100861.84;10529037;28;20097;-77
2022/12/13 17:13:04;;;;;;;1.40;1.30;;;;;;;-6.37;96.00;100866.28;10512915;28;20044;-77
2022/12/13 17:18:05;;;;;;;4.70;4.00;;;;;;;-6.47;96.03;100865.50;10485596;28;20429;-76
2022/12/13 17:23:07;;;;;;;3.30;3.00;;;;;;;-6.50;95.83;100864.31;10496573;28;20048;-78
2022/12/13 17:28:15;;;;;;;7.22;4.75;;;;;;;-6.56;95.53;100857.03;10515921;28;20124;-79
2022/12/13 17:33:17;;;;;;;3.70;3.05;;;;;;;-6.66;95.74;100863.00;10525181;28;20128;-79
2022/12/13 17:38:18;;;;;;;6.55;3.78;;;;;;;-6.68;95.47;100871.25;10513147;28;20063;-80
2022/12/13 17:43:20;;;;;;;3.80;3.15;;;;;;;-6.72;95.34;100865.03;10523375;28;20074;-80
2022/12/13 17:48:35;;;;;;;5.15;2.72;;;;;;;-6.81;95.79;100876.97;10527570;28;20078;-79
2022/12/13 17:53:43;;;;;;;3.40;3.08;;;;;;;-6.72;95.50;100865.03;10505172;28;20070;-83
2022/12/13 17:58:45;;;;;;;2.80;2.55;;;;;;;-6.48;95.29;100866.25;10507173;28;20044;-80
2022/12/13 18:03:47;;;;;;;5.53;4.15;;;;;;;-6.19;95.37;100859.31;10524407;28;20044;-80
2022/12/13 18:08:49;;;;;;;4.85;3.53;;;;;;;-6.05;95.87;100854.63;10518334;28;20068;-78
2022/12/13 18:13:51;;;;;;;3.78;3.42;;;;;;;-6.20;95.62;100857.50;10523353;28;20051;-80
2022/12/13 18:18:56;;;;;;;4.72;4.25;;;;;;;-6.36;95.67;100860.41;10498860;28;20078;-78
2022/12/13 18:23:58;;;;;;;3.17;2.83;;;;;;;-6.34;95.84;100848.69;10524678;28;20043;-79
2022/12/13 18:29:00;;;;;;;4.38;3.80;;;;;;;-6.28;95.89;100855.19;10527295;28;20039;-84
2022/12/13 18:34:02;;;;;;;3.78;3.30;;;;;;;-6.43;95.91;100848.81;10492247;28;20043;-79
2022/12/13 18:39:04;;;;;;;2.00;1.88;;;;;;;-6.55;96.13;100840.13;10525825;28;20044;-81
2022/12/13 18:44:06;;;;;;;6.45;5.63;;;;;;;-6.61;95.70;100851.53;10525354;28;20103;-80
2022/12/13 18:49:09;;;;;;;3.72;3.40;;;;;;;-6.59;95.76;100857.69;10523702;28;20169;-80
2022/12/13 18:54:11;;;;;;;7.70;4.55;;;;;;;-6.55;96.07;100845.22;10526605;28;20671;-81
2022/12/13 18:59:12;;;;;;;3.00;2.55;;;;;;;-6.51;95.87;100834.53;10497861;28;20044;-80
2022/12/13 19:04:14;;;;;;;8.65;4.57;;;;;;;-6.53;95.90;100820.75;10485671;28;20101;-79
2022/12/13 19:09:15;;;;;;;6.60;5.85;;;;;;;-6.53;95.52;100818.19;10522453;28;20579;-80
2022/12/13 19:14:17;;;;;;;8.13;2.70;;;;;;;-6.38;95.99;100819.50;10491419;28;20483;-81
2022/12/13 19:19:27;;;;;;;6.07;3.67;;;;;;;-6.33;95.70;100813.16;10515465;28;20058;-81
2022/12/13 19:24:28;;;;;;;2.97;1.95;;;;;;;-6.29;95.67;100815.22;10498424;28;20116;-80
2022/12/13 19:29:30;;;;;;;4.70;2.90;;;;;;;-6.22;95.93;100811.50;10498610;28;20036;-82
2022/12/13 19:34:32;;;;;;;2.38;1.50;;;;;;;-6.20;95.93;100799.78;10510887;28;20048;-79
2022/12/13 19:39:33;;;;;;;2.53;1.92;;;;;;;-6.29;95.96;100797.38;10530083;28;20088;-80
2022/12/13 19:44:35;;;;;;;1.42;1.33;;;;;;;-6.39;96.34;100787.16;10507109;28;20099;-82
2022/12/13 19:49:37;;;;;;;1.75;1.45;;;;;;;-6.46;96.39;100782.31;10507881;28;20051;-81
2022/12/13 19:54:39;;;;;;;0.57;0.57;;;;;;;-6.46;95.88;100772.09;10489963;28;20514;-81
2022/12/13 19:59:40;;;;;;;2.50;2.30;;;;;;;-6.43;96.06;100780.88;10504619;28;20425;-81
2022/12/13 20:04:43;;;;;;;3.85;2.65;;;;;;;-6.31;96.21;100772.50;10517763;28;20682;-80
2022/12/13 20:09:45;;;;;;;1.45;1.33;;;;;;;-6.21;96.55;100769.97;10506860;28;20036;-79
2022/12/13 20:14:46;;;;;;;1.15;1.05;;;;;;;-6.14;96.32;100766.25;10519783;28;20043;-82
2022/12/13 20:19:48;;;;;;;1.83;1.73;;;;;;;-6.18;96.12;100764.22;10514223;28;20052;-79
2022/12/13 20:24:49;;;;;;;2.03;1.88;;;;;;;-6.29;96.27;100761.69;10511578;28;20564;-81
2022/12/13 20:29:52;;;;;;;2.72;2.53;;;;;;;-6.33;96.40;100759.63;10527035;28;20054;-81
2022/12/13 20:34:54;;;;;;;2.28;2.08;;;;;;;-6.48;95.96;100748.16;10509574;28;20432;-79
2022/12/13 20:39:58;;;;;;;2.53;2.30;;;;;;;-6.65;96.22;100749.25;10517123;28;20410;-79
2022/12/13 20:45:01;;;;;;;1.95;1.77;;;;;;;-6.84;96.09;100744.28;10521169;28;20414;-80
2022/12/13 20:50:03;;;;;;;4.63;2.97;;;;;;;-6.88;96.16;100743.09;10518994;28;20508;-82
2022/12/13 20:55:05;;;;;;;1.30;1.20;;;;;;;-6.91;96.06;100750.47;10512742;28;20044;-82
2022/12/13 21:00:08;;;;;;;3.28;1.92;;;;;;;-7.06;95.74;100742.41;10514222;28;20056;-82
2022/12/13 21:05:09;;;;;;;0.85;0.85;;;;;;;-7.13;95.83;100735.00;10522601;28;21657;-81
2022/12/13 21:10:11;;;;;;;2.13;1.95;;;;;;;-7.15;95.51;100728.91;10501376;28;20059;-82
2022/12/13 21:15:12;;;;;;;8.50;4.05;;;;;;;-7.20;96.04;100725.09;10509523;28;20070;-79
2022/12/13 21:20:14;;;;;;;0.65;0.65;;;;;;;-7.17;95.82;100726.22;10498398;28;20039;-79
2022/12/13 21:25:15;;;;;;;3.50;3.05;;;;;;;-7.22;96.31;100726.56;10515402;28;20043;-79
2022/12/13 21:30:17;;;;;;;4.32;3.13;;;;;;;-7.17;95.45;100718.59;10501196;28;20047;-80
2022/12/13 21:35:19;;;;;;;5.47;3.55;;;;;;;-7.22;95.79;100718.94;10517637;28;20051;-80
2022/12/13 21:40:21;;;;;;;5.57;3.33;;;;;;;-7.30;95.80;100713.19;10488062;28;20052;-79
2022/12/13 21:45:23;;;;;;;5.00;3.65;;;;;;;-7.41;95.53;100709.72;10514038;28;20887;-79
2022/12/13 21:50:24;;;;;;;2.47;2.10;;;;;;;-7.44;95.95;100712.00;10503974;28;20470;-80
2022/12/13 21:55:26;;;;;;;1.77;1.67;;;;;;;-7.41;95.64;100697.00;10504891;28;20039;-82
2022/12/13 22:00:39;;;;;;;4.25;3.70;;;;;;;-7.45;95.40;100692.41;10507042;28;20035;-79
2022/12/13 22:05:41;;;;;;;1.55;1.45;;;;;;;-7.53;95.17;100689.19;10516965;28;20451;-79
2022/12/13 22:16:03;;;;;;;1.00;1.00;;;;;;;-7.63;95.39;100681.50;10516223;28;20048;-79
2022/12/13 22:21:05;;;;;;;2.78;2.20;;;;;;;-7.68;95.52;100668.41;10523690;28;20040;-80
2022/12/13 22:26:07;;;;;;;9.15;4.22;;;;;;;-7.62;95.68;100672.25;10475757;28;20066;-80
2022/12/13 22:31:08;;;;;;;4.00;3.17;;;;;;;-7.56;95.34;100668.59;10488450;28;20056;-79
2022/12/13 22:36:10;;;;;;;2.40;2.20;;;;;;;-7.38;95.67;100664.19;10491758;28;20092;-79
2022/12/13 22:41:14;;;;;;;1.35;1.25;;;;;;;-7.34;95.31;100660.25;10522763;28;20055;-79
2022/12/13 22:46:18;;;;;;;4.63;1.27;;;;;;;-7.31;94.85;100655.44;10501993;28;20094;-79
2022/12/13 22:51:19;;;;;;;3.97;2.80;;;;;;;-7.39;95.50;100652.22;10492333;28;20122;-79
2022/12/13 22:56:22;;;;;;;4.13;2.63;;;;;;;-7.46;95.25;100649.91;10515233;28;20773;-79
2022/12/13 23:01:26;;;;;;;1.85;1.38;;;;;;;-7.51;95.22;100651.19;10510582;28;20509;-79
2022/12/13 23:06:36;;;;;;;1.35;1.25;;;;;;;-7.54;94.88;100643.28;10501318;28;20040;-79
2022/12/13 23:16:58;;;;;;;1.83;1.65;;;;;;;-7.74;95.49;100627.19;10509404;28;20035;-83
2022/12/13 23:22:00;;;;;;;1.23;1.15;;;;;;;-7.80;95.35;100623.22;10521960;28;20072;-82
2022/12/13 23:27:02;;;;;;;2.20;2.03;;;;;;;-7.85;94.89;100620.25;10491473;28;20493;-79
2022/12/13 23:32:03;;;;;;;4.93;3.83;;;;;;;-7.89;95.01;100615.69;10515180;28;20056;-81
2022/12/13 23:37:05;;;;;;;2.00;1.08;;;;;;;-7.97;94.97;100612.47;10510163;28;20063;-81
2022/12/13 23:42:06;;;;;;;2.25;2.05;;;;;;;-7.96;94.87;100613.38;10497885;28;20048;-80